Time;durP1;ratioP1;P1;durP2;ratioP2;P2;SDS_P1;SDS_P2;PMS_P1;PMS_P2;Temp;Humidity;BMP_temperature;BMP_pressure;BME280_temperature;BME280_humidity;BME280_pressure;Samples;Min_cycle;Max_cycle;Signal;HPM_P1;HPM_P2
2023/07/12 00:03:27;;;;;;;5.63;3.28;;;;;;;;;;10420339;28;20048;-75
2023/07/12 00:08:31;;;;;;;7.20;2.75;;;;;;;;;;10428402;28;20040;-76
2023/07/12 00:13:35;;;;;;;5.93;2.60;;;;;;;;;;10426579;28;20072;-75
2023/07/12 00:18:39;;;;;;;5.35;2.60;;;;;;;;;;10427284;28;20033;-75
2023/07/12 00:23:42;;;;;;;8.40;2.47;;;;;;;;;;10426751;28;20071;-75
2023/07/12 00:28:44;;;;;;;8.30;3.10;;;;;;;;;;10427904;28;20048;-75
2023/07/12 00:33:48;;;;;;;4.10;2.22;;;;;;;;;;10425858;28;20307;-75
2023/07/12 00:38:51;;;;;;;6.85;2.30;;;;;;;;;;10425830;28;20052;-75
2023/07/12 00:43:57;;;;;;;5.90;2.40;;;;;;;;;;10423434;28;20044;-76
2023/07/12 00:49:01;;;;;;;7.70;2.30;;;;;;;;;;10423963;28;20048;-75
2023/07/12 00:54:09;;;;;;;4.60;2.80;;;;;;;;;;10423481;28;20059;-75
2023/07/12 00:59:26;;;;;;;6.78;2.50;;;;;;;;;;10421664;28;20037;-74
2023/07/12 01:04:33;;;;;;;8.40;2.75;;;;;;;;;;10429350;28;20053;-75
2023/07/12 01:09:36;;;;;;;6.68;2.33;;;;;;;;;;10427356;28;20037;-75
2023/07/12 01:14:39;;;;;;;5.18;2.10;;;;;;;;;;10423417;28;20053;-74
2023/07/12 01:19:41;;;;;;;;;;;;;;;;;;10430743;28;20041;-76
2023/07/12 01:24:45;;;;;;;5.88;2.50;;;;;;;;;;10432746;28;19925;-75
2023/07/12 01:29:49;;;;;;;4.65;2.10;;;;;;;;;;10431483;28;20171;-75
2023/07/12 01:34:52;;;;;;;6.20;2.42;;;;;;;;;;10428225;28;20162;-75
2023/07/12 01:39:56;;;;;;;4.88;2.40;;;;;;;;;;10428137;28;20525;-76
2023/07/12 01:44:58;;;;;;;4.43;2.22;;;;;;;;;;10429161;28;20498;-76
2023/07/12 01:50:01;;;;;;;2.83;1.45;;;;;;;;;;10429622;28;20063;-75
2023/07/12 01:55:05;;;;;;;7.07;1.70;;;;;;;;;;10431195;28;20053;-75
2023/07/12 02:00:08;;;;;;;4.95;1.23;;;;;;;;;;10427815;28;20299;-75
2023/07/12 02:05:11;;;;;;;5.55;1.90;;;;;;;;;;10432349;28;20471;-74
2023/07/12 02:10:16;;;;;;;5.88;2.20;;;;;;;;;;10430234;28;20040;-75
2023/07/12 02:15:19;;;;;;;2.13;1.65;;;;;;;;;;10429882;28;20689;-75
2023/07/12 02:20:22;;;;;;;4.22;2.00;;;;;;;;;;10428975;28;20410;-76
2023/07/12 02:25:26;;;;;;;4.97;1.77;;;;;;;;;;10426914;28;20037;-75
2023/07/12 02:30:30;;;;;;;4.30;1.70;;;;;;;;;;10427703;28;20044;-75
2023/07/12 02:35:32;;;;;;;3.70;1.50;;;;;;;;;;10425247;28;20135;-75
2023/07/12 02:40:36;;;;;;;4.78;1.63;;;;;;;;;;10431303;28;20051;-77
2023/07/12 02:45:39;;;;;;;6.28;1.95;;;;;;;;;;10435485;28;20044;-75
2023/07/12 02:50:42;;;;;;;2.67;1.23;;;;;;;;;;10429870;28;20045;-76
2023/07/12 02:55:48;;;;;;;7.47;2.30;;;;;;;;;;10432260;28;20463;-76
2023/07/12 03:00:56;;;;;;;5.45;2.55;;;;;;;;;;10460656;28;20057;-76
2023/07/12 03:06:02;;;;;;;6.13;2.05;;;;;;;;;;10430086;28;20037;-76
2023/07/12 03:11:07;;;;;;;2.92;1.40;;;;;;;;;;10428730;28;20041;-76
2023/07/12 03:16:10;;;;;;;6.18;2.60;;;;;;;;;;10425606;28;20040;-76
2023/07/12 03:21:13;;;;;;;7.23;2.67;;;;;;;;;;10425830;28;20052;-76
2023/07/12 03:26:16;;;;;;;;;;;;;;;;;;10434698;28;20303;-76
2023/07/12 03:31:21;;;;;;;6.40;2.50;;;;;;;;;;10441879;28;19927;-77
2023/07/12 03:36:25;;;;;;;6.30;2.67;;;;;;;;;;10443990;28;20033;-77
2023/07/12 03:41:28;;;;;;;3.67;2.20;;;;;;;;;;10446624;28;20116;-76
2023/07/12 03:46:32;;;;;;;5.75;2.83;;;;;;;;;;10439735;28;20049;-76
2023/07/12 03:51:35;;;;;;;3.25;2.08;;;;;;;;;;10447554;28;20116;-76
2023/07/12 03:56:38;;;;;;;7.10;2.73;;;;;;;;;;10437805;28;20064;-76
2023/07/12 04:01:42;;;;;;;4.15;1.88;;;;;;;;;;10439223;28;20318;-76
2023/07/12 04:06:45;;;;;;;2.45;1.50;;;;;;;;;;10440698;28;20045;-76
2023/07/12 04:11:48;;;;;;;7.85;2.80;;;;;;;;;;10441091;28;20051;-76
2023/07/12 04:16:52;;;;;;;6.82;3.03;;;;;;;;;;10471075;28;20056;-77
2023/07/12 04:21:55;;;;;;;7.88;3.33;;;;;;;;;;10433117;28;20048;-76
2023/07/12 04:26:59;;;;;;;7.85;3.00;;;;;;;;;;10435674;28;20079;-76
2023/07/12 04:32:03;;;;;;;5.07;3.17;;;;;;;;;;10440740;28;20194;-76
2023/07/12 04:37:06;;;;;;;6.93;2.80;;;;;;;;;;10437845;28;20111;-76
2023/07/12 04:42:10;;;;;;;5.93;2.97;;;;;;;;;;10433163;28;20045;-76
2023/07/12 04:47:15;;;;;;;7.43;2.97;;;;;;;;;;10444816;28;20127;-76
2023/07/12 04:52:18;;;;;;;8.48;3.25;;;;;;;;;;10439374;28;20076;-75
2023/07/12 04:57:21;;;;;;;7.25;3.13;;;;;;;;;;10436535;28;20124;-76
2023/07/12 05:02:25;;;;;;;5.95;3.05;;;;;;;;;;10430584;28;20055;-76
2023/07/12 05:07:31;;;;;;;9.10;2.75;;;;;;;;;;10432175;28;20053;-76
2023/07/12 05:12:34;;;;;;;7.78;3.40;;;;;;;;;;10437382;28;20052;-76
2023/07/12 05:17:39;;;;;;;9.63;3.05;;;;;;;;;;10437603;28;20041;-75
2023/07/12 05:22:43;;;;;;;3.90;1.83;;;;;;;;;;10441884;28;20127;-77
2023/07/12 05:27:46;;;;;;;5.40;2.67;;;;;;;;;;10441926;28;20576;-76
2023/07/12 05:32:50;;;;;;;11.20;3.28;;;;;;;;;;10441181;28;20144;-77
2023/07/12 05:37:53;;;;;;;4.00;2.25;;;;;;;;;;10428723;28;20045;-78
2023/07/12 05:42:56;;;;;;;7.57;3.10;;;;;;;;;;10436200;28;20047;-76
2023/07/12 05:48:00;;;;;;;5.30;2.92;;;;;;;;;;10436306;28;20033;-77
2023/07/12 05:53:03;;;;;;;8.55;2.50;;;;;;;;;;10437355;28;20060;-77
2023/07/12 05:58:06;;;;;;;5.20;2.92;;;;;;;;;;10438031;28;20498;-77
2023/07/12 06:03:11;;;;;;;7.15;1.88;;;;;;;;;;10436783;28;20056;-76
2023/07/12 06:08:14;;;;;;;5.53;2.20;;;;;;;;;;10451814;28;20451;-77
2023/07/12 06:13:17;;;;;;;6.63;2.45;;;;;;;;;;10450188;28;20041;-76
2023/07/12 06:18:22;;;;;;;6.75;2.83;;;;;;;;;;10445987;28;20308;-75
2023/07/12 06:23:24;;;;;;;5.68;2.05;;;;;;;;;;10448523;28;20045;-76
2023/07/12 06:28:27;;;;;;;5.63;2.30;;;;;;;;;;10444110;28;20116;-76
2023/07/12 06:33:31;;;;;;;4.28;2.45;;;;;;;;;;10442536;28;20041;-76
2023/07/12 06:38:34;;;;;;;7.80;3.10;;;;;;;;;;10442856;28;20043;-77
2023/07/12 06:43:37;;;;;;;2.42;1.65;;;;;;;;;;10437980;28;20033;-77
2023/07/12 06:48:40;;;;;;;;;;;;;;;;;;10438866;28;20045;-77
2023/07/12 06:53:44;;;;;;;7.40;2.10;;;;;;;;;;10439825;28;20016;-77
2023/07/12 06:58:47;;;;;;;5.47;2.25;;;;;;;;;;10440047;28;20045;-77
2023/07/12 07:03:50;;;;;;;6.03;2.67;;;;;;;;;;10456421;28;20049;-79
2023/07/12 07:08:54;;;;;;;4.03;1.80;;;;;;;;;;10441682;28;20041;-77
2023/07/12 07:13:57;;;;;;;5.97;2.38;;;;;;;;;;10436751;28;20055;-77
2023/07/12 07:18:59;;;;;;;3.17;1.57;;;;;;;;;;10436752;28;20041;-77
2023/07/12 07:24:04;;;;;;;3.50;1.65;;;;;;;;;;10434672;28;20063;-77
2023/07/12 07:29:06;;;;;;;3.60;1.30;;;;;;;;;;10436570;28;20068;-78
2023/07/12 07:34:09;;;;;;;4.15;1.50;;;;;;;;;;10431553;28;20059;-77
2023/07/12 07:39:13;;;;;;;6.20;1.17;;;;;;;;;;10432907;28;20041;-76
2023/07/12 07:44:17;;;;;;;2.40;1.25;;;;;;;;;;10435959;28;20052;-78
2023/07/12 07:49:19;;;;;;;4.57;1.85;;;;;;;;;;10435642;28;20049;-78
2023/07/12 07:54:23;;;;;;;3.22;1.40;;;;;;;;;;10433390;28;20179;-77
2023/07/12 07:59:26;;;;;;;3.50;1.17;;;;;;;;;;10438296;28;20067;-78
2023/07/12 08:04:29;;;;;;;4.40;1.42;;;;;;;;;;10439099;28;20120;-77
2023/07/12 08:09:34;;;;;;;5.05;1.30;;;;;;;;;;10434832;28;20051;-79
2023/07/12 08:14:36;;;;;;;3.05;1.23;;;;;;;;;;10437896;28;20037;-78
2023/07/12 08:19:39;;;;;;;3.50;1.25;;;;;;;;;;10434123;28;20045;-77
2023/07/12 08:24:42;;;;;;;;;;;;;;;;;;10434316;28;20502;-77
2023/07/12 08:29:46;;;;;;;3.53;1.40;;;;;;;;;;10434061;28;19925;-78
2023/07/12 08:34:49;;;;;;;5.05;1.50;;;;;;;;;;10430273;28;20076;-78
2023/07/12 08:39:51;;;;;;;1.27;0.85;;;;;;;;;;10429803;28;20044;-79
2023/07/12 08:44:54;;;;;;;;;;;;;;;;;;10434508;28;20065;-78
2023/07/12 08:50:01;;;;;;;2.55;1.40;;;;;;;;;;10435324;28;19998;-77
2023/07/12 08:55:05;;;;;;;2.63;1.50;;;;;;;;;;10429062;28;20128;-78
2023/07/12 09:00:10;;;;;;;1.20;0.90;;;;;;;;;;10432610;28;20607;-78
2023/07/12 09:05:16;;;;;;;1.90;1.10;;;;;;;;;;10431578;28;20068;-77
2023/07/12 09:10:29;;;;;;;2.88;1.35;;;;;;;;;;10433064;28;20379;-78
2023/07/12 09:15:34;;;;;;;2.17;1.55;;;;;;;;;;10432289;28;20072;-77
2023/07/12 09:20:40;;;;;;;5.05;1.30;;;;;;;;;;10430628;28;20424;-79
2023/07/12 09:25:47;;;;;;;1.77;1.52;;;;;;;;;;10429230;28;20056;-78
2023/07/12 09:30:51;;;;;;;5.05;1.67;;;;;;;;;;10430261;28;20052;-79
2023/07/12 09:36:00;;;;;;;2.35;1.23;;;;;;;;;;10429433;28;20065;-78
2023/07/12 09:41:09;;;;;;;2.33;2.00;;;;;;;;;;10443144;28;20540;-78
2023/07/12 09:46:17;;;;;;;2.55;1.73;;;;;;;;;;10438000;28;20041;-79
2023/07/12 09:51:30;;;;;;;2.00;1.63;;;;;;;;;;10439710;28;20048;-79
2023/07/12 09:56:37;;;;;;;3.45;1.83;;;;;;;;;;10441020;28;20328;-78
2023/07/12 10:01:48;;;;;;;2.80;1.90;;;;;;;;;;10438343;28;21337;-79
2023/07/12 10:06:55;;;;;;;4.75;2.17;;;;;;;;;;10438383;28;20048;-79
2023/07/12 10:12:02;;;;;;;2.47;1.65;;;;;;;;;;10437070;28;20174;-79
2023/07/12 10:17:06;;;;;;;2.30;1.80;;;;;;;;;;10434914;28;20053;-78
2023/07/12 10:22:16;;;;;;;5.55;2.13;;;;;;;;;;10432367;28;20053;-78
2023/07/12 10:27:21;;;;;;;4.65;1.65;;;;;;;;;;10436145;28;20351;-78
2023/07/12 10:32:26;;;;;;;4.32;2.20;;;;;;;;;;10438072;28;20470;-78
2023/07/12 10:37:32;;;;;;;3.40;1.90;;;;;;;;;;10440984;28;20060;-77
2023/07/12 10:42:40;;;;;;;4.35;2.10;;;;;;;;;;10436284;28;20493;-79
2023/07/12 10:47:44;;;;;;;4.38;2.47;;;;;;;;;;10435758;28;20051;-78
2023/07/12 10:53:02;;;;;;;2.00;1.65;;;;;;;;;;10463148;28;20045;-78
2023/07/12 10:58:14;;;;;;;3.03;2.30;;;;;;;;;;10432736;28;20048;-78
2023/07/12 11:03:19;;;;;;;4.65;2.40;;;;;;;;;;10428851;28;20053;-79
2023/07/12 11:08:46;;;;;;;3.47;2.30;;;;;;;;;;10435357;28;20036;-78
2023/07/12 11:13:54;;;;;;;5.05;2.15;;;;;;;;;;10411997;28;20049;-79
2023/07/12 11:18:57;;;;;;;5.50;2.70;;;;;;;;;;10430644;28;20043;-79
2023/07/12 11:24:20;;;;;;;6.03;2.97;;;;;;;;;;10437660;28;20071;-79
2023/07/12 11:29:30;;;;;;;7.38;3.20;;;;;;;;;;10436179;28;20138;-79
2023/07/12 11:34:38;;;;;;;5.07;2.55;;;;;;;;;;10435074;28;20059;-79
2023/07/12 11:39:46;;;;;;;4.97;2.97;;;;;;;;;;10438112;28;20045;-79
2023/07/12 11:45:00;;;;;;;4.95;3.00;;;;;;;;;;10433774;28;20057;-79
2023/07/12 11:50:08;;;;;;;4.63;3.20;;;;;;;;;;10431435;28;20048;-79
2023/07/12 11:55:14;;;;;;;7.82;3.20;;;;;;;;;;10429368;28;20045;-79
2023/07/12 12:00:20;;;;;;;7.18;2.90;;;;;;;;;;10427750;28;20056;-78
2023/07/12 12:05:25;;;;;;;5.47;2.60;;;;;;;;;;10425357;28;20331;-78
2023/07/12 12:10:28;;;;;;;7.85;3.35;;;;;;;;;;10423672;28;20045;-79
2023/07/12 12:15:34;;;;;;;4.32;2.90;;;;;;;;;;10428597;28;20051;-79
2023/07/12 12:20:37;;;;;;;9.52;3.10;;;;;;;;;;10432079;28;20051;-78
2023/07/12 12:25:46;;;;;;;8.60;3.40;;;;;;;;;;10431462;28;20076;-78
2023/07/12 12:30:58;;;;;;;6.85;3.60;;;;;;;;;;10429255;28;20114;-78
2023/07/12 12:36:02;;;;;;;8.63;3.95;;;;;;;;;;10433501;28;20068;-78
2023/07/12 12:41:10;;;;;;;11.35;3.90;;;;;;;;;;10431568;28;20449;-78
2023/07/12 12:46:14;;;;;;;6.78;3.63;;;;;;;;;;10432901;28;20044;-78
2023/07/12 12:51:20;;;;;;;7.80;3.58;;;;;;;;;;10423744;28;20049;-82
2023/07/12 12:56:26;;;;;;;8.30;3.88;;;;;;;;;;10427552;28;20040;-78
2023/07/12 13:01:33;;;;;;;5.68;3.38;;;;;;;;;;10428736;28;20071;-78
2023/07/12 13:06:55;;;;;;;6.85;4.25;;;;;;;;;;10428210;28;20075;-78
2023/07/12 13:12:01;;;;;;;6.32;4.00;;;;;;;;;;10433939;28;20087;-78
2023/07/12 13:17:12;;;;;;;9.50;4.43;;;;;;;;;;10433225;28;20129;-78
2023/07/12 13:22:18;;;;;;;6.43;4.00;;;;;;;;;;10435836;28;20121;-79
2023/07/12 13:27:27;;;;;;;7.25;4.13;;;;;;;;;;10433935;28;20116;-78
2023/07/12 13:32:31;;;;;;;12.80;5.05;;;;;;;;;;10428231;28;20468;-79
2023/07/12 13:37:36;;;;;;;7.95;4.25;;;;;;;;;;10430288;28;20068;-79
2023/07/12 13:42:46;;;;;;;9.32;4.57;;;;;;;;;;10433128;28;20052;-78
2023/07/12 13:48:01;;;;;;;6.85;3.50;;;;;;;;;;10428044;28;20055;-77
2023/07/12 13:53:05;;;;;;;5.30;2.55;;;;;;;;;;10425736;28;20474;-78
2023/07/12 13:58:09;;;;;;;4.93;2.38;;;;;;;;;;10429199;28;20052;-78
2023/07/12 14:03:16;;;;;;;6.05;2.22;;;;;;;;;;10429930;28;20532;-78
2023/07/12 14:08:21;;;;;;;5.95;2.35;;;;;;;;;;10429318;28;20099;-78
2023/07/12 14:13:39;;;;;;;3.90;2.13;;;;;;;;;;10432866;28;20053;-79
2023/07/12 14:18:44;;;;;;;6.32;2.00;;;;;;;;;;10433775;28;20715;-78
2023/07/12 14:23:46;;;;;;;3.97;2.10;;;;;;;;;;10441569;28;20090;-85
2023/07/12 14:28:49;;;;;;;5.80;2.30;;;;;;;;;;10446056;28;20568;-84
2023/07/12 14:33:59;;;;;;;6.18;2.33;;;;;;;;;;10439010;28;20065;-84
2023/07/12 14:39:02;;;;;;;3.50;2.10;;;;;;;;;;10440479;28;20175;-80
2023/07/12 14:44:11;;;;;;;3.72;2.22;;;;;;;;;;10438265;28;20520;-81
2023/07/12 14:49:15;;;;;;;4.22;2.10;;;;;;;;;;10431729;28;20601;-81
2023/07/12 14:54:19;;;;;;;4.88;3.25;;;;;;;;;;10437029;28;20126;-82
2023/07/12 14:59:23;;;;;;;3.50;2.15;;;;;;;;;;10443321;28;20055;-80
2023/07/12 15:04:27;;;;;;;3.33;1.73;;;;;;;;;;10434456;28;20124;-81
2023/07/12 15:09:30;;;;;;;2.05;1.40;;;;;;;;;;10441891;28;20212;-84
2023/07/12 15:14:33;;;;;;;2.35;1.38;;;;;;;;;;10443891;28;20109;-80
2023/07/12 15:19:37;;;;;;;2.30;1.67;;;;;;;;;;10437429;28;20098;-81
2023/07/12 15:24:39;;;;;;;3.45;2.00;;;;;;;;;;10440051;28;20570;-81
2023/07/12 15:29:43;;;;;;;5.25;2.25;;;;;;;;;;10436097;28;20052;-80
2023/07/12 15:34:48;;;;;;;3.50;1.88;;;;;;;;;;10434171;28;20131;-80
2023/07/12 15:39:51;;;;;;;3.60;2.10;;;;;;;;;;10434326;28;20051;-80
2023/07/12 15:44:54;;;;;;;2.45;1.80;;;;;;;;;;10433985;28;20134;-85
2023/07/12 15:49:58;;;;;;;5.20;2.15;;;;;;;;;;10434456;28;20218;-86
2023/07/12 15:55:00;;;;;;;4.72;1.90;;;;;;;;;;10443371;28;20044;-81
2023/07/12 16:00:04;;;;;;;4.45;2.20;;;;;;;;;;10434102;28;20048;-81
2023/07/12 16:05:10;;;;;;;5.05;2.10;;;;;;;;;;10445519;28;20087;-81
2023/07/12 16:10:14;;;;;;;4.93;2.40;;;;;;;;;;10442139;28;20039;-81
2023/07/12 16:15:17;;;;;;;4.63;2.67;;;;;;;;;;10439350;28;20705;-80
2023/07/12 16:20:21;;;;;;;4.47;2.22;;;;;;;;;;10441734;28;20041;-81
2023/07/12 16:25:24;;;;;;;7.18;3.45;;;;;;;;;;10449686;28;20642;-79
2023/07/12 16:30:27;;;;;;;4.07;2.42;;;;;;;;;;10449341;28;20466;-80
2023/07/12 16:35:29;;;;;;;;;;;;;;;;;;10448259;28;20051;-79
2023/07/12 16:40:34;;;;;;;5.63;2.65;;;;;;;;;;10446021;28;19950;-80
2023/07/12 16:45:37;;;;;;;8.05;3.33;;;;;;;;;;10451695;28;20055;-84
2023/07/12 16:50:40;;;;;;;;;;;;;;;;;;10444920;28;20049;-84
2023/07/12 16:55:45;;;;;;;7.47;2.92;;;;;;;;;;10441198;28;19931;-84
2023/07/12 17:00:48;;;;;;;8.43;3.97;;;;;;;;;;10449443;28;20464;-82
2023/07/12 17:05:52;;;;;;;8.32;3.80;;;;;;;;;;10438812;28;20029;-76
2023/07/12 17:10:57;;;;;;;12.80;6.75;;;;;;;;;;10433990;28;20116;-78
2023/07/12 17:16:00;;;;;;;4.00;2.55;;;;;;;;;;10433848;28;20519;-78
2023/07/12 17:21:02;;;;;;;4.88;2.58;;;;;;;;;;10431406;28;20048;-76
2023/07/12 17:26:10;;;;;;;4.25;2.38;;;;;;;;;;10430396;28;20045;-76
2023/07/12 17:31:16;;;;;;;8.55;2.70;;;;;;;;;;10433966;28;20578;-76
2023/07/12 17:36:19;;;;;;;6.45;2.80;;;;;;;;;;10438401;28;20048;-78
2023/07/12 17:41:24;;;;;;;7.38;2.35;;;;;;;;;;10442369;28;20246;-76
2023/07/12 17:46:27;;;;;;;5.95;2.90;;;;;;;;;;10438887;28;20052;-77
2023/07/12 17:51:30;;;;;;;;;;;;;;;;;;10439719;28;20120;-78
2023/07/12 17:56:34;;;;;;;5.73;2.83;;;;;;;;;;10433702;28;19928;-84
2023/07/12 18:01:37;;;;;;;4.20;2.35;;;;;;;;;;10442625;28;20128;-83
2023/07/12 18:06:40;;;;;;;3.80;2.40;;;;;;;;;;10452130;28;20049;-83
2023/07/12 18:11:46;;;;;;;3.83;2.05;;;;;;;;;;10458063;28;20037;-84
2023/07/12 18:16:51;;;;;;;3.53;1.83;;;;;;;;;;10466362;28;20067;-83
2023/07/12 18:21:54;;;;;;;6.80;2.72;;;;;;;;;;10474242;28;20037;-78
2023/07/12 18:26:58;;;;;;;3.08;1.55;;;;;;;;;;10452700;28;20102;-78
2023/07/12 18:32:01;;;;;;;4.63;2.20;;;;;;;;;;10443333;28;20032;-79
2023/07/12 18:37:09;;;;;;;3.90;2.10;;;;;;;;;;10446840;28;20048;-79
2023/07/12 18:42:16;;;;;;;2.70;1.50;;;;;;;;;;10448472;28;20124;-77
2023/07/12 18:47:19;;;;;;;4.15;2.47;;;;;;;;;;10441093;28;20049;-78
2023/07/12 18:52:24;;;;;;;2.42;1.58;;;;;;;;;;10444553;28;20083;-77
2023/07/12 18:57:28;;;;;;;2.70;1.48;;;;;;;;;;10442426;28;20167;-77
2023/07/12 19:02:31;;;;;;;3.95;2.53;;;;;;;;;;10441189;28;20151;-77
2023/07/12 19:07:34;;;;;;;3.13;2.20;;;;;;;;;;10438257;28;20498;-77
2023/07/12 19:12:38;;;;;;;1.75;1.17;;;;;;;;;;10444705;28;20049;-79
2023/07/12 19:17:41;;;;;;;2.90;1.88;;;;;;;;;;10438856;28;20136;-77
2023/07/12 19:22:44;;;;;;;4.07;2.25;;;;;;;;;;10446123;28;20155;-78
2023/07/12 19:27:49;;;;;;;3.92;2.10;;;;;;;;;;10443331;28;20737;-79
2023/07/12 19:33:02;;;;;;;5.28;3.10;;;;;;;;;;10445229;28;20037;-80
2023/07/12 19:38:17;;;;;;;5.05;2.33;;;;;;;;;;10446711;28;20037;-79
2023/07/12 19:43:22;;;;;;;6.15;2.80;;;;;;;;;;10445320;28;20576;-79
2023/07/12 19:48:24;;;;;;;7.55;2.70;;;;;;;;;;10450515;28;20048;-80
2023/07/12 19:53:27;;;;;;;5.72;2.30;;;;;;;;;;10464319;28;20470;-80
2023/07/12 19:58:31;;;;;;;6.88;2.90;;;;;;;;;;10454408;28;20071;-80
2023/07/12 20:03:34;;;;;;;5.68;3.08;;;;;;;;;;10443492;28;20041;-80
2023/07/12 20:08:38;;;;;;;6.80;2.40;;;;;;;;;;10451217;28;20139;-80
2023/07/12 20:13:43;;;;;;;2.45;1.60;;;;;;;;;;10455929;28;20132;-81
2023/07/12 20:18:47;;;;;;;5.55;2.67;;;;;;;;;;10463069;28;20043;-83
2023/07/12 20:23:50;;;;;;;4.63;2.20;;;;;;;;;;10457257;28;20087;-81
2023/07/12 20:28:55;;;;;;;5.10;2.27;;;;;;;;;;10450259;28;20127;-82
2023/07/12 20:33:58;;;;;;;6.93;2.97;;;;;;;;;;10452238;28;20357;-80
2023/07/12 20:39:00;;;;;;;3.90;1.53;;;;;;;;;;10451077;28;20076;-82
2023/07/12 20:44:05;;;;;;;5.57;2.15;;;;;;;;;;10444268;28;20372;-79
2023/07/12 20:49:09;;;;;;;4.97;2.58;;;;;;;;;;10454258;28;20131;-80
2023/07/12 20:54:12;;;;;;;9.32;3.15;;;;;;;;;;10452124;28;20094;-83
2023/07/12 20:59:16;;;;;;;11.80;3.25;;;;;;;;;;10454529;28;20044;-80
2023/07/12 21:04:19;;;;;;;7.97;3.58;;;;;;;;;;10449559;28;20116;-77
2023/07/12 21:09:22;;;;;;;7.70;3.20;;;;;;;;;;10441750;28;20498;-79
2023/07/12 21:14:27;;;;;;;9.07;3.97;;;;;;;;;;10454143;28;20475;-80
2023/07/12 21:19:30;;;;;;;9.27;3.45;;;;;;;;;;10442631;28;20407;-79
2023/07/12 21:24:33;;;;;;;7.85;3.47;;;;;;;;;;10445540;28;20116;-80
2023/07/12 21:29:37;;;;;;;9.68;4.43;;;;;;;;;;10448087;28;20122;-80
2023/07/12 21:34:40;;;;;;;8.27;3.60;;;;;;;;;;10449196;28;20043;-79
2023/07/12 21:39:44;;;;;;;8.30;4.03;;;;;;;;;;10456840;28;20041;-80
2023/07/12 21:44:49;;;;;;;6.70;3.55;;;;;;;;;;10453769;28;20317;-75
2023/07/12 21:49:52;;;;;;;7.03;3.35;;;;;;;;;;10445949;28;20041;-77
2023/07/12 21:54:59;;;;;;;3.97;2.03;;;;;;;;;;10448365;28;20052;-77
2023/07/12 22:00:08;;;;;;;9.00;3.85;;;;;;;;;;10443591;28;20051;-76
2023/07/12 22:05:12;;;;;;;9.57;3.40;;;;;;;;;;10461461;28;20096;-81
2023/07/12 22:10:15;;;;;;;9.38;3.20;;;;;;;;;;10461053;28;20110;-78
2023/07/12 22:15:18;;;;;;;;;;;;;;;;;;10461915;28;20045;-78
2023/07/12 22:20:23;;;;;;;7.30;3.47;;;;;;;;;;10452713;28;19921;-79
2023/07/12 22:25:26;;;;;;;7.07;3.47;;;;;;;;;;10460156;28;20033;-77
2023/07/12 22:30:32;;;;;;;9.18;4.40;;;;;;;;;;10452490;28;20071;-78
2023/07/12 22:35:37;;;;;;;10.55;3.17;;;;;;;;;;10452847;28;20095;-79
2023/07/12 22:40:40;;;;;;;5.43;2.30;;;;;;;;;;10451483;28;20127;-79
2023/07/12 22:45:43;;;;;;;6.90;3.58;;;;;;;;;;10446161;28;20391;-80
2023/07/12 22:50:46;;;;;;;;;;;;;;;;;;10448175;28;20044;-79
2023/07/12 22:55:56;;;;;;;5.35;3.00;;;;;;;;;;10451414;28;19925;-79
2023/07/12 23:00:59;;;;;;;4.88;2.67;;;;;;;;;;10454356;28;20139;-79
2023/07/12 23:06:02;;;;;;;6.03;3.58;;;;;;;;;;10448713;28;20033;-80
2023/07/12 23:11:08;;;;;;;7.15;2.78;;;;;;;;;;10449954;28;20060;-81
2023/07/12 23:16:16;;;;;;;4.20;2.30;;;;;;;;;;10448149;28;20033;-80
2023/07/12 23:21:20;;;;;;;6.68;3.00;;;;;;;;;;10454095;28;20124;-80
2023/07/12 23:26:24;;;;;;;7.60;3.47;;;;;;;;;;10451710;28;20116;-80
2023/07/12 23:31:27;;;;;;;4.97;2.17;;;;;;;;;;10444329;28;20072;-78
2023/07/12 23:36:31;;;;;;;3.40;1.55;;;;;;;;;;10450537;28;20072;-79
2023/07/12 23:41:35;;;;;;;4.90;2.35;;;;;;;;;;10444724;28;20063;-79
2023/07/12 23:46:42;;;;;;;3.05;1.95;;;;;;;;;;10464506;28;20065;-79
2023/07/12 23:51:45;;;;;;;4.32;2.70;;;;;;;;;;10474876;28;20075;-79
2023/07/12 23:56:51;;;;;;;4.10;2.40;;;;;;;;;;10489217;28;20105;-78
